KCRW/CRW METAR and TAF weather

Enter ICAO airport designator
Station Type Date Time Source
KCRW METAR 2018/07/21 12:54 UTC NOAA

KCRW 211254Z 00000KT 10SM FEW055 SCT085 BKN110 19/18 A2985 RMK AO2 SLP103 T01890178


Station Type Date Time Source
KCRW Decoded METAR 2018/07/21 12:54 UTC NOAA

YEAGER AIRPORT, WV, United States (KCRW) 38-22N 081-36W 309M
Jul 21, 2018 - 08:54 AM EDT / 2018.07.21 1254 UTC
Wind: Calm:0
Visibility: 10 mile(s):0
Sky conditions: mostly cloudy
Temperature: 66.0 F (18.9 C)
Dew Point: 64.0 F (17.8 C)
Relative Humidity: 93%
Pressure (altimeter): 29.85 in. Hg (1010 hPa)
ob: KCRW 211254Z 00000KT 10SM FEW055 SCT085 BKN110 19/18 A2985 RMK AO2 SLP103 T01890178
cycle: 13

Station Type Date Time Source
KCRW TAF 2018/07/21 12:22 UTC NOAA

TAF KCRW 211120Z 2112/2212 16006KT P6SM BKN100
FM211300 18006KT P6SM BKN050
FM211800 19006KT 5SM SHRA VCTS BKN040CB
FM220100 18005KT P6SM OVC150
FM220600 VRB03KT 5SM BR SCT002
FM220900 VRB03KT 1/2SM FG OVC002


Example: see airport list